Time;durP1;ratioP1;P1;durP2;ratioP2;P2;SDS_P1;SDS_P2;PMS_P1;PMS_P2;Temp;Humidity;BMP_temperature;BMP_pressure;BME280_temperature;BME280_humidity;BME280_pressure;Samples;Min_cycle;Max_cycle;Signal;HPM_P1;HPM_P2
2023/01/14 00:01:21;;;;;;;0.90;0.90;;;3.20;99.90;;;;;;4979529;28;20054;-44
2023/01/14 00:03:49;;;;;;;1.10;1.10;;;3.20;99.90;;;;;;4982028;28;20085;-44
2023/01/14 00:06:20;;;;;;;0.93;0.93;;;3.30;99.90;;;;;;4979143;28;20430;-44
2023/01/14 00:08:53;;;;;;;2.75;1.23;;;3.20;99.90;;;;;;4980368;28;20448;-45
2023/01/14 00:11:45;;;;;;;0.75;0.75;;;3.30;99.90;;;;;;4983718;28;20050;-44
2023/01/14 00:14:09;;;;;;;4.43;1.23;;;3.30;99.90;;;;;;4956576;28;20586;-44
2023/01/14 00:16:37;;;;;;;1.10;1.10;;;3.20;99.90;;;;;;4982125;28;20059;-45
2023/01/14 00:19:04;;;;;;;1.20;1.02;;;3.20;99.90;;;;;;4982447;28;20681;-45
2023/01/14 00:21:32;;;;;;;0.73;0.73;;;3.30;99.90;;;;;;4977543;28;20062;-44
2023/01/14 00:23:59;;;;;;;2.33;1.77;;;3.30;99.90;;;;;;4977306;28;20086;-44
2023/01/14 00:26:27;;;;;;;1.13;1.02;;;3.20;99.90;;;;;;4979022;28;20046;-44
2023/01/14 00:28:55;;;;;;;2.10;0.93;;;3.20;99.90;;;;;;4980333;28;20046;-44
2023/01/14 00:31:25;;;;;;;1.30;1.20;;;3.10;99.90;;;;;;4983605;28;20454;-45
2023/01/14 00:33:54;;;;;;;1.02;1.02;;;3.00;99.90;;;;;;4982159;28;20066;-45
2023/01/14 00:36:24;;;;;;;0.90;0.90;;;3.10;99.90;;;;;;4986147;28;20411;-45
2023/01/14 00:38:55;;;;;;;1.58;1.27;;;3.00;99.90;;;;;;4981801;28;20060;-44
2023/01/14 00:41:25;;;;;;;1.38;1.30;;;2.90;99.90;;;;;;4980954;28;20061;-45
2023/01/14 00:43:55;;;;;;;3.40;1.15;;;3.00;99.90;;;;;;4978059;28;20047;-45
2023/01/14 00:46:34;;;;;;;2.15;1.45;;;2.80;99.90;;;;;;4981840;28;20042;-45
2023/01/14 00:49:04;;;;;;;1.45;1.35;;;2.60;99.90;;;;;;4982981;28;20077;-44
2023/01/14 00:51:32;;;;;;;0.80;0.80;;;2.60;99.90;;;;;;4967020;28;20423;-45
2023/01/14 00:54:01;;;;;;;0.80;0.80;;;2.60;99.90;;;;;;4980553;28;20069;-44
2023/01/14 00:56:29;;;;;;;0.93;0.90;;;2.70;99.90;;;;;;4986152;28;20661;-44
2023/01/14 00:58:57;;;;;;;0.70;0.70;;;2.80;99.90;;;;;;4986699;28;20055;-45
2023/01/14 01:01:25;;;;;;;5.80;1.00;;;2.90;99.90;;;;;;4987925;28;20043;-44
2023/01/14 01:03:56;;;;;;;1.75;1.15;;;2.80;99.90;;;;;;4967800;28;20495;-44
2023/01/14 01:06:26;;;;;;;1.00;1.00;;;2.80;99.90;;;;;;4984715;28;20369;-44
2023/01/14 01:09:00;;;;;;;0.98;0.98;;;2.80;99.90;;;;;;4982932;28;20662;-44
2023/01/14 01:11:28;;;;;;;3.55;0.98;;;2.80;99.90;;;;;;4963711;28;20050;-44
2023/01/14 01:13:58;;;;;;;1.55;1.45;;;2.80;99.90;;;;;;4967514;28;20047;-44
2023/01/14 01:16:26;;;;;;;3.70;0.82;;;2.80;99.90;;;;;;4987858;28;20045;-44
2023/01/14 01:18:56;;;;;;;1.00;0.93;;;2.60;99.90;;;;;;4985648;28;20054;-44
2023/01/14 01:21:24;;;;;;;1.30;1.13;;;2.60;99.90;;;;;;4987761;28;20050;-44
2023/01/14 01:23:52;;;;;;;0.95;0.95;;;2.80;99.90;;;;;;4982607;28;20042;-44
2023/01/14 01:26:24;;;;;;;2.17;1.05;;;2.70;99.90;;;;;;4981421;28;20053;-44
2023/01/14 01:28:56;;;;;;;1.20;1.20;;;2.60;99.90;;;;;;4982881;28;20051;-44
2023/01/14 01:31:27;;;;;;;2.45;1.27;;;2.50;99.90;;;;;;4965603;28;20043;-44
2023/01/14 01:33:55;;;;;;;3.75;1.27;;;2.60;99.90;;;;;;4985351;28;20054;-44
2023/01/14 01:36:26;;;;;;;1.75;0.93;;;2.80;99.90;;;;;;4982784;28;20046;-44
2023/01/14 01:38:54;;;;;;;2.80;1.38;;;2.70;99.90;;;;;;4978399;28;20368;-44
2023/01/14 01:41:27;;;;;;;0.85;0.85;;;2.70;99.90;;;;;;4982143;28;20050;-44
2023/01/14 01:44:04;;;;;;;1.35;1.10;;;2.70;99.90;;;;;;4976617;28;20446;-33
2023/01/14 01:46:32;;;;;;;1.42;1.10;;;2.80;99.90;;;;;;4962441;28;20039;-34
2023/01/14 01:49:13;;;;;;;0.82;0.82;;;2.60;99.90;;;;;;4984613;28;20062;-34
2023/01/14 01:51:54;;;;;;;1.13;1.03;;;2.70;99.90;;;;;;4975890;28;20054;-34
2023/01/14 01:54:26;;;;;;;2.42;1.20;;;2.70;99.90;;;;;;4982034;28;20058;-34
2023/01/14 01:56:55;;;;;;;1.13;1.13;;;2.70;99.90;;;;;;4983903;28;20413;-34
2023/01/14 01:59:26;;;;;;;4.72;1.73;;;2.80;99.90;;;;;;4967206;28;20072;-34
2023/01/14 02:01:54;;;;;;;0.75;0.75;;;2.70;99.90;;;;;;4985364;28;20061;-34
2023/01/14 02:04:22;;;;;;;1.38;1.10;;;2.60;99.90;;;;;;4979120;28;20251;-34
2023/01/14 02:06:50;;;;;;;0.80;0.80;;;2.60;99.90;;;;;;4966744;28;20050;-34
2023/01/14 02:09:18;;;;;;;0.90;0.90;;;2.70;99.90;;;;;;4981942;28;20046;-34
2023/01/14 02:12:10;;;;;;;0.85;0.85;;;2.70;99.90;;;;;;4966202;28;20437;-34
2023/01/14 02:14:46;;;;;;;3.00;1.50;;;2.70;99.90;;;;;;4979786;28;20042;-34
2023/01/14 02:17:23;;;;;;;3.33;1.27;;;2.70;99.90;;;;;;4966176;28;20214;-34
2023/01/14 02:20:28;;;;;;;2.65;0.98;;;2.80;99.90;;;;;;4981352;28;20054;-34
2023/01/14 02:23:16;;;;;;;12.13;1.27;;;2.90;99.90;;;;;;4976425;28;20081;-34
2023/01/14 02:26:05;;;;;;;3.88;1.45;;;2.80;99.90;;;;;;4964891;28;20050;-34
2023/01/14 02:28:44;;;;;;;0.90;0.88;;;3.00;99.90;;;;;;4984177;28;20050;-34
2023/01/14 02:31:33;;;;;;;2.35;1.65;;;3.00;99.90;;;;;;4981048;28;20355;-34
2023/01/14 02:34:10;;;;;;;4.25;1.20;;;2.90;99.90;;;;;;4961746;28;20352;-34
2023/01/14 02:36:56;;;;;;;1.08;0.98;;;2.80;99.90;;;;;;4984076;28;20046;-34
2023/01/14 02:39:42;;;;;;;2.47;1.23;;;2.80;99.90;;;;;;4961722;28;20043;-34
2023/01/14 02:45:11;;;;;;;5.47;1.40;;;2.80;99.90;;;;;;4982124;28;20050;-34
2023/01/14 02:47:42;;;;;;;0.98;0.98;;;2.90;99.90;;;;;;4949861;28;20046;-34
2023/01/14 02:50:13;;;;;;;0.90;0.90;;;2.90;99.90;;;;;;4962673;28;20058;-34
2023/01/14 02:52:41;;;;;;;1.20;1.10;;;3.10;99.90;;;;;;4960654;28;20298;-34
2023/01/14 02:55:31;;;;;;;2.83;1.38;;;3.10;99.90;;;;;;4975789;28;20058;-33
2023/01/14 02:58:02;;;;;;;3.40;1.85;;;3.10;99.90;;;;;;4964319;28;20506;-34
2023/01/14 03:00:59;;;;;;;1.48;0.90;;;3.20;99.90;;;;;;4962045;28;20042;-34
2023/01/14 03:04:06;;;;;;;1.00;1.00;;;3.20;99.90;;;;;;4979764;28;20069;-33
2023/01/14 03:06:47;;;;;;;1.25;1.25;;;3.10;99.90;;;;;;4933135;28;20046;-34
2023/01/14 03:09:39;;;;;;;9.82;1.45;;;3.10;99.90;;;;;;4960471;28;20050;-34
2023/01/14 03:12:37;;;;;;;3.38;1.05;;;3.00;99.90;;;;;;4975240;28;20414;-34
2023/01/14 03:15:16;;;;;;;4.57;1.35;;;3.00;99.90;;;;;;4979349;28;20055;-34
2023/01/14 03:17:55;;;;;;;1.63;1.05;;;2.90;99.90;;;;;;4978790;28;20054;-34
2023/01/14 03:20:28;;;;;;;1.35;1.35;;;2.80;99.90;;;;;;4978884;28;20042;-34
2023/01/14 03:23:00;;;;;;;1.33;1.00;;;2.80;99.90;;;;;;4964744;28;20057;-34
2023/01/14 03:25:30;;;;;;;3.55;0.95;;;2.80;99.90;;;;;;4978660;28;20042;-34
2023/01/14 03:28:05;;;;;;;2.72;1.30;;;2.80;99.90;;;;;;4960545;28;20042;-34
2023/01/14 03:30:36;;;;;;;1.30;1.23;;;2.80;99.90;;;;;;4957610;28;20035;-34
2023/01/14 03:33:14;;;;;;;2.13;1.10;;;2.80;99.90;;;;;;4964555;28;20049;-33
2023/01/14 03:35:43;;;;;;;6.63;1.20;;;2.90;99.90;;;;;;4969784;28;20054;-33
2023/01/14 03:38:21;;;;;;;1.40;1.40;;;3.00;99.90;;;;;;4981580;28;20053;-33
2023/01/14 03:40:53;;;;;;;0.88;0.85;;;3.00;99.90;;;;;;4973776;28;20135;-33
2023/01/14 03:43:31;;;;;;;1.45;1.40;;;3.00;99.90;;;;;;4983055;28;20042;-34
2023/01/14 03:45:59;;;;;;;1.23;1.15;;;3.00;99.90;;;;;;4976637;28;20529;-33
2023/01/14 03:48:27;;;;;;;4.97;1.73;;;3.10;99.90;;;;;;4976441;28;20046;-33
2023/01/14 03:51:19;;;;;;;4.85;2.13;;;3.20;99.90;;;;;;4983016;28;20061;-34
2023/01/14 03:54:21;;;;;;;0.93;0.93;;;3.40;99.90;;;;;;4977192;28;20055;-35
2023/01/14 03:57:15;;;;;;;5.38;1.10;;;3.40;99.90;;;;;;4930478;28;20058;-34
2023/01/14 03:59:57;;;;;;;5.55;1.45;;;3.50;99.90;;;;;;4977284;28;20065;-34
2023/01/14 04:02:25;;;;;;;2.13;1.50;;;3.60;99.90;;;;;;4978899;28;20069;-34
2023/01/14 04:04:54;;;;;;;4.03;1.55;;;3.70;99.90;;;;;;4985594;28;20058;-34
2023/01/14 04:07:23;;;;;;;1.40;1.30;;;3.70;99.90;;;;;;4985659;28;20077;-34
2023/01/14 04:09:51;;;;;;;6.25;1.40;;;3.70;99.90;;;;;;4977262;28;20872;-34
2023/01/14 04:12:18;;;;;;;8.63;2.00;;;3.70;99.90;;;;;;4982289;28;20522;-34
2023/01/14 04:17:37;;;;;;;3.83;1.70;;;3.80;99.90;;;;;;4981026;28;20048;-34
2023/01/14 04:20:06;;;;;;;2.67;1.45;;;3.80;99.90;;;;;;4981376;28;20053;-34
2023/01/14 04:22:33;;;;;;;0.98;0.98;;;3.80;99.90;;;;;;4982656;28;20474;-34
2023/01/14 04:25:01;;;;;;;1.33;1.33;;;3.70;99.90;;;;;;4980996;28;20050;-34
2023/01/14 04:27:29;;;;;;;1.75;1.65;;;3.60;99.90;;;;;;4985290;28;20043;-34
2023/01/14 04:29:56;;;;;;;2.15;1.95;;;3.50;99.90;;;;;;4986129;28;20043;-34
2023/01/14 04:32:24;;;;;;;4.35;3.15;;;3.50;99.90;;;;;;4981465;28;20400;-34
2023/01/14 04:34:51;;;;;;;12.43;2.97;;;3.60;99.90;;;;;;4982504;28;20065;-35
2023/01/14 04:37:19;;;;;;;2.20;1.55;;;3.60;99.90;;;;;;4985153;28;20252;-35
2023/01/14 04:39:47;;;;;;;1.48;1.38;;;3.50;99.90;;;;;;4980002;28;20054;-34
2023/01/14 04:42:27;;;;;;;4.95;2.85;;;3.50;99.90;;;;;;4982084;28;20058;-34
2023/01/14 04:45:00;;;;;;;1.83;1.42;;;3.50;99.90;;;;;;4980179;28;20170;-34
2023/01/14 04:47:29;;;;;;;1.60;1.50;;;3.50;99.90;;;;;;4980346;28;20050;-34
2023/01/14 04:49:57;;;;;;;1.35;1.30;;;3.60;99.90;;;;;;4988545;28;20061;-34
2023/01/14 04:52:25;;;;;;;2.40;1.27;;;3.70;99.90;;;;;;4984935;28;20612;-34
2023/01/14 04:54:52;;;;;;;3.03;2.10;;;3.70;99.90;;;;;;4983633;28;20054;-34
2023/01/14 04:57:20;;;;;;;1.88;1.30;;;3.70;99.90;;;;;;4985254;28;20050;-34
2023/01/14 04:59:53;;;;;;;1.05;0.95;;;3.70;99.90;;;;;;4980378;28;20075;-34
2023/01/14 05:02:21;;;;;;;1.50;1.42;;;3.70;99.90;;;;;;4989128;28;20533;-34
2023/01/14 05:04:48;;;;;;;2.10;1.27;;;3.80;99.90;;;;;;4986447;28;20392;-34
2023/01/14 05:07:16;;;;;;;8.45;3.65;;;3.70;99.90;;;;;;4985375;28;20061;-34
2023/01/14 05:09:43;;;;;;;2.53;1.55;;;3.70;99.90;;;;;;4963369;28;20038;-35
2023/01/14 05:12:11;;;;;;;1.17;1.15;;;3.70;99.90;;;;;;4981459;28;20557;-34
2023/01/14 05:14:38;;;;;;;5.65;1.98;;;3.70;99.90;;;;;;4984685;28;20076;-34
2023/01/14 05:17:06;;;;;;;3.50;1.30;;;3.70;99.90;;;;;;4980899;28;20061;-34
2023/01/14 05:19:33;;;;;;;1.33;1.13;;;3.70;99.90;;;;;;4985155;28;20050;-34
2023/01/14 05:22:01;;;;;;;1.08;0.95;;;3.70;99.90;;;;;;4985846;28;20062;-34
2023/01/14 05:24:28;;;;;;;1.33;1.23;;;3.70;99.90;;;;;;4981658;28;20542;-35
2023/01/14 05:26:56;;;;;;;2.40;1.42;;;3.60;99.90;;;;;;4985058;28;20454;-34
2023/01/14 05:29:23;;;;;;;2.17;2.03;;;3.60;99.90;;;;;;4981631;28;20047;-34
2023/01/14 05:31:51;;;;;;;8.80;3.00;;;3.50;99.90;;;;;;4984998;28;20057;-34
2023/01/14 05:34:19;;;;;;;2.20;1.17;;;3.60;99.90;;;;;;4982939;28;20426;-34
2023/01/14 05:36:46;;;;;;;2.10;2.00;;;3.60;99.90;;;;;;4984986;28;20348;-35
2023/01/14 05:39:14;;;;;;;4.78;2.40;;;3.60;99.90;;;;;;4983762;28;20450;-34
2023/01/14 05:45:37;;;;;;;1.38;1.27;;;3.50;99.90;;;;;;4984649;28;20042;-34
2023/01/14 05:47:15;;;;;;;2.30;1.50;;;3.50;99.90;;;;;;4980562;28;20043;-34
2023/01/14 05:49:42;;;;;;;2.55;1.05;;;3.50;99.90;;;;;;4983745;28;20049;-34
2023/01/14 05:52:10;;;;;;;1.60;1.10;;;3.50;99.90;;;;;;4980480;28;20451;-34
2023/01/14 05:54:37;;;;;;;6.70;1.88;;;3.50;99.90;;;;;;4980547;28;20414;-34
2023/01/14 05:57:12;;;;;;;4.30;2.25;;;3.40;99.90;;;;;;4979960;28;20054;-34
2023/01/14 05:59:40;;;;;;;3.35;1.48;;;3.40;99.90;;;;;;4984736;28;20069;-35
2023/01/14 06:07:41;;;;;;;0.85;0.85;;;3.30;99.90;;;;;;4981665;28;20050;-34
2023/01/14 06:10:09;;;;;;;5.50;2.45;;;3.20;99.90;;;;;;4982986;28;20046;-35
2023/01/14 06:12:57;;;;;;;3.58;1.92;;;3.30;99.90;;;;;;4984492;28;20042;-34
2023/01/14 06:15:29;;;;;;;1.15;1.15;;;3.20;99.90;;;;;;4967144;28;20054;-35
2023/01/14 06:18:08;;;;;;;6.72;4.63;;;3.10;99.90;;;;;;4981707;28;20054;-35
2023/01/14 06:20:37;;;;;;;4.28;1.10;;;3.00;99.90;;;;;;4980012;28;20069;-34
2023/01/14 06:23:07;;;;;;;0.93;0.93;;;3.10;99.90;;;;;;4982687;28;20422;-34
2023/01/14 06:25:35;;;;;;;1.10;1.10;;;3.10;99.90;;;;;;4982242;28;20832;-34
2023/01/14 06:28:03;;;;;;;13.85;2.83;;;3.00;99.90;;;;;;4983245;28;20073;-35
2023/01/14 06:30:30;;;;;;;6.22;2.65;;;2.90;99.90;;;;;;4983392;28;20054;-34
2023/01/14 06:32:58;;;;;;;6.72;1.92;;;2.80;99.90;;;;;;4979302;28;20050;-34
2023/01/14 06:35:25;;;;;;;1.70;1.45;;;2.70;99.90;;;;;;4979588;28;20515;-34
2023/01/14 06:37:53;;;;;;;1.75;1.35;;;2.80;99.90;;;;;;4982424;28;20066;-34
2023/01/14 06:40:20;;;;;;;2.53;1.67;;;2.70;99.90;;;;;;4978663;28;20046;-34
2023/01/14 06:42:52;;;;;;;8.93;1.95;;;2.60;99.90;;;;;;4983652;28;20058;-34
2023/01/14 06:45:20;;;;;;;3.08;1.30;;;2.50;99.90;;;;;;4981854;28;20042;-34
2023/01/14 06:47:48;;;;;;;3.80;1.17;;;2.40;99.90;;;;;;4978940;28;20550;-35
2023/01/14 06:50:18;;;;;;;3.05;1.55;;;2.20;99.90;;;;;;4983700;28;20550;-34
2023/01/14 06:52:45;;;;;;;2.03;1.92;;;2.20;99.90;;;;;;4961000;28;20042;-35
2023/01/14 06:55:13;;;;;;;2.78;2.20;;;2.00;99.90;;;;;;4979264;28;20046;-34
2023/01/14 06:57:42;;;;;;;0.98;0.98;;;2.00;99.90;;;;;;4966090;28;20034;-35
2023/01/14 07:00:10;;;;;;;3.03;1.40;;;1.90;99.90;;;;;;4983316;28;20522;-34
2023/01/14 07:02:38;;;;;;;5.25;2.63;;;1.70;99.90;;;;;;4981884;28;20545;-35
2023/01/14 07:05:07;;;;;;;1.27;1.17;;;1.40;99.90;;;;;;4979923;28;20054;-35
2023/01/14 07:07:34;;;;;;;2.88;1.23;;;1.40;99.90;;;;;;4978798;28;20046;-35
2023/01/14 07:10:02;;;;;;;1.48;1.38;;;1.40;99.90;;;;;;4981763;28;20252;-35
2023/01/14 07:12:30;;;;;;;2.17;1.30;;;1.40;99.90;;;;;;4977761;28;20057;-34
2023/01/14 07:14:57;;;;;;;3.10;1.40;;;1.40;99.90;;;;;;4982367;28;20050;-34
2023/01/14 07:17:24;;;;;;;3.55;0.93;;;1.10;99.90;;;;;;4981824;28;20538;-34
2023/01/14 07:19:52;;;;;;;4.45;1.52;;;1.10;99.90;;;;;;4979371;28;20050;-34
2023/01/14 07:22:20;;;;;;;1.10;1.10;;;1.10;99.90;;;;;;4980703;28;20050;-34
2023/01/14 07:24:47;;;;;;;3.60;2.08;;;1.10;99.90;;;;;;4979620;28;20521;-35
2023/01/14 07:27:15;;;;;;;1.70;1.60;;;1.00;99.90;;;;;;4983636;28;20510;-35
2023/01/14 07:29:43;;;;;;;2.13;1.58;;;0.90;99.90;;;;;;4978073;28;20058;-34
2023/01/14 07:32:10;;;;;;;1.30;1.20;;;1.00;99.90;;;;;;4976172;28;20046;-35
2023/01/14 07:34:38;;;;;;;1.55;1.25;;;1.00;99.90;;;;;;4978017;28;20537;-34
2023/01/14 07:37:06;;;;;;;3.10;1.00;;;0.90;99.90;;;;;;4981789;28;20042;-34
2023/01/14 07:39:34;;;;;;;1.95;0.95;;;0.90;99.90;;;;;;4979598;28;20518;-34
2023/01/14 07:42:02;;;;;;;4.70;1.58;;;1.00;99.90;;;;;;4985350;28;20056;-34
2023/01/14 07:44:31;;;;;;;1.60;1.60;;;1.10;99.90;;;;;;4964088;28;20059;-34
2023/01/14 07:46:58;;;;;;;2.60;0.95;;;1.10;99.90;;;;;;4987531;28;20057;-35
2023/01/14 07:49:26;;;;;;;3.20;2.35;;;1.10;99.90;;;;;;4986981;28;20510;-34
2023/01/14 07:51:54;;;;;;;1.80;1.05;;;0.90;99.90;;;;;;4961021;28;20042;-34
2023/01/14 07:54:21;;;;;;;3.53;1.13;;;0.80;99.90;;;;;;4984957;28;20054;-35
2023/01/14 07:56:49;;;;;;;1.38;1.38;;;0.90;99.90;;;;;;4985944;28;20364;-34
2023/01/14 07:59:16;;;;;;;1.83;1.30;;;1.00;99.90;;;;;;4986632;28;20046;-34
2023/01/14 08:01:44;;;;;;;1.02;1.00;;;1.00;99.90;;;;;;4985167;28;20051;-35
2023/01/14 08:04:12;;;;;;;3.13;1.15;;;0.90;99.90;;;;;;4982439;28;20047;-34
2023/01/14 08:06:39;;;;;;;1.33;1.33;;;0.90;99.90;;;;;;4987790;28;20050;-35
2023/01/14 08:09:07;;;;;;;1.60;1.50;;;1.00;99.90;;;;;;4980944;28;20050;-35
2023/01/14 08:11:36;;;;;;;1.00;1.00;;;1.20;99.90;;;;;;4987524;28;20066;-34
2023/01/14 08:14:03;;;;;;;2.33;1.48;;;1.40;99.90;;;;;;4987099;28;20047;-35
2023/01/14 08:16:31;;;;;;;1.73;1.63;;;1.50;99.90;;;;;;4987423;28;20400;-34
2023/01/14 08:18:59;;;;;;;4.97;1.95;;;1.70;99.90;;;;;;4985836;28;20058;-34
2023/01/14 08:21:26;;;;;;;5.78;5.15;;;1.90;99.90;;;;;;4987169;28;20066;-34
2023/01/14 08:23:54;;;;;;;5.68;4.38;;;2.20;99.90;;;;;;4984956;28;20054;-35
2023/01/14 08:26:21;;;;;;;5.63;3.83;;;2.40;99.90;;;;;;4987357;28;20054;-34
2023/01/14 08:28:49;;;;;;;3.03;2.80;;;2.70;99.90;;;;;;4986235;28;20259;-34
2023/01/14 08:31:17;;;;;;;3.50;2.55;;;2.80;99.90;;;;;;4988870;28;20054;-34
2023/01/14 08:33:45;;;;;;;2.20;2.10;;;2.90;99.90;;;;;;4989115;28;20069;-35
2023/01/14 08:36:16;;;;;;;3.78;2.83;;;2.90;99.90;;;;;;4987405;28;20073;-34
2023/01/14 08:38:46;;;;;;;2.03;1.92;;;2.90;99.90;;;;;;4988061;28;20058;-34
2023/01/14 08:41:15;;;;;;;1.70;1.60;;;3.00;99.90;;;;;;4983271;28;20526;-34
2023/01/14 08:43:46;;;;;;;2.30;2.17;;;3.10;99.90;;;;;;4980655;28;20446;-35
2023/01/14 08:46:15;;;;;;;2.20;1.90;;;3.20;99.90;;;;;;4992077;28;20054;-35
2023/01/14 08:48:42;;;;;;;3.92;1.63;;;3.40;99.90;;;;;;4988505;28;20057;-35
2023/01/14 08:51:12;;;;;;;2.67;1.75;;;3.50;99.90;;;;;;4991698;28;20054;-35
2023/01/14 08:53:40;;;;;;;2.10;1.75;;;3.60;99.90;;;;;;4987425;28;20537;-35
2023/01/14 08:56:11;;;;;;;2.28;2.17;;;3.70;99.90;;;;;;4991275;28;20046;-35
2023/01/14 08:58:39;;;;;;;2.50;2.13;;;3.70;99.90;;;;;;4990837;28;20370;-35
2023/01/14 09:01:07;;;;;;;2.42;2.22;;;3.80;99.90;;;;;;4985451;28;20507;-35
2023/01/14 09:03:37;;;;;;;1.75;1.65;;;3.90;99.90;;;;;;4986119;28;20458;-35
2023/01/14 09:06:08;;;;;;;2.72;2.25;;;4.00;99.90;;;;;;4983225;28;20402;-36
2023/01/14 09:17:07;;;;;;;6.15;2.20;;;4.30;99.90;;;;;;4989089;28;20046;-34
2023/01/14 09:19:56;;;;;;;7.75;4.07;;;4.40;99.90;;;;;;4986320;28;20050;-35
2023/01/14 09:22:29;;;;;;;7.22;3.33;;;4.60;99.90;;;;;;4990392;28;20085;-35
2023/01/14 09:24:57;;;;;;;3.17;2.97;;;4.80;99.90;;;;;;4984897;28;20569;-36
2023/01/14 09:27:27;;;;;;;2.72;2.40;;;4.90;99.90;;;;;;4987619;28;20561;-35
2023/01/14 09:29:55;;;;;;;6.40;3.60;;;4.90;99.90;;;;;;4985200;28;20039;-35
2023/01/14 09:32:23;;;;;;;2.60;2.15;;;5.00;99.90;;;;;;4981737;28;20414;-35
2023/01/14 09:34:52;;;;;;;2.90;2.67;;;5.00;99.90;;;;;;4983201;28;20062;-35
2023/01/14 09:37:22;;;;;;;5.38;2.20;;;5.10;99.90;;;;;;4987081;28;20186;-36
2023/01/14 09:39:50;;;;;;;5.03;2.38;;;5.30;99.90;;;;;;4980274;28;20518;-36
2023/01/14 09:42:37;;;;;;;3.75;3.03;;;5.40;99.90;;;;;;4980095;28;20055;-35
2023/01/14 09:45:24;;;;;;;2.85;2.28;;;5.50;99.90;;;;;;4982097;28;20046;-35
2023/01/14 09:47:54;;;;;;;2.55;2.35;;;5.60;99.90;;;;;;4981798;28;20433;-35
2023/01/14 09:50:51;;;;;;;3.20;2.13;;;5.70;99.90;;;;;;4987553;28;20046;-35
2023/01/14 09:53:46;;;;;;;2.22;2.05;;;5.80;99.90;;;;;;4968943;28;20053;-35
2023/01/14 09:56:24;;;;;;;3.10;2.63;;;6.00;99.90;;;;;;4981393;28;20419;-35
2023/01/14 09:59:02;;;;;;;2.17;2.00;;;6.40;99.90;;;;;;4983683;28;20054;-36
2023/01/14 10:01:54;;;;;;;3.60;2.33;;;6.70;99.90;;;;;;4984062;28;20046;-35
2023/01/14 10:04:47;;;;;;;2.38;2.17;;;6.40;99.90;;;;;;4983116;28;20046;-35
2023/01/14 10:07:17;;;;;;;2.67;2.45;;;6.30;99.90;;;;;;4984525;28;20054;-34
2023/01/14 10:09:53;;;;;;;2.38;1.98;;;6.30;99.90;;;;;;4979199;28;20043;-35
2023/01/14 10:12:37;;;;;;;2.55;2.35;;;6.50;99.90;;;;;;4985428;28;20053;-34
2023/01/14 10:15:23;;;;;;;2.15;1.70;;;6.80;99.90;;;;;;4988896;28;20057;-35
2023/01/14 10:18:14;;;;;;;2.55;1.95;;;7.00;99.90;;;;;;4980330;28;20039;-35
2023/01/14 10:20:48;;;;;;;2.78;2.53;;;6.90;99.90;;;;;;4965192;28;20047;-35
2023/01/14 10:23:39;;;;;;;2.83;2.17;;;6.90;99.90;;;;;;4983055;28;20093;-35
2023/01/14 10:26:22;;;;;;;2.78;2.20;;;6.90;99.90;;;;;;4947431;28;20057;-35
2023/01/14 10:28:52;;;;;;;2.58;1.52;;;6.90;99.90;;;;;;4987966;28;20065;-34
2023/01/14 10:31:27;;;;;;;2.38;2.17;;;7.00;99.90;;;;;;4981505;28;20047;-35
2023/01/14 10:33:57;;;;;;;3.42;2.25;;;7.30;99.90;;;;;;4966561;28;20065;-35
2023/01/14 10:36:29;;;;;;;2.55;2.35;;;7.40;99.90;;;;;;4979221;28;20065;-35
2023/01/14 10:38:59;;;;;;;2.95;2.20;;;7.60;99.90;;;;;;4983072;28;20042;-34
2023/01/14 10:44:26;;;;;;;5.88;5.32;;;7.70;99.90;;;;;;4989589;28;20038;-34
2023/01/14 10:46:59;;;;;;;12.30;3.30;;;7.60;99.90;;;;;;4989710;28;20057;-35
2023/01/14 10:49:46;;;;;;;2.47;2.28;;;7.60;99.90;;;;;;4988703;28;20050;-36
2023/01/14 10:52:20;;;;;;;2.45;2.25;;;7.80;99.90;;;;;;4989249;28;20396;-35
2023/01/14 10:55:13;;;;;;;3.45;1.98;;;7.90;99.90;;;;;;4985954;28;20430;-34
2023/01/14 10:58:01;;;;;;;3.13;2.13;;;7.90;99.90;;;;;;4980070;28;20050;-35
2023/01/14 11:00:38;;;;;;;2.28;2.15;;;7.90;99.90;;;;;;4985725;28;20046;-35
2023/01/14 11:03:18;;;;;;;2.60;2.38;;;7.80;99.90;;;;;;4969114;28;20053;-35
2023/01/14 11:06:04;;;;;;;2.20;1.73;;;7.70;99.90;;;;;;4961091;28;20042;-35
2023/01/14 11:08:39;;;;;;;1.83;1.50;;;7.70;99.90;;;;;;4981676;28;20047;-35
2023/01/14 11:11:08;;;;;;;3.13;2.83;;;7.70;99.90;;;;;;4976278;28;20050;-35
2023/01/14 11:13:48;;;;;;;2.70;1.40;;;7.70;99.90;;;;;;4978435;28;20473;-35
2023/01/14 11:16:27;;;;;;;2.85;2.65;;;7.80;99.90;;;;;;4977589;28;20062;-35
2023/01/14 11:19:03;;;;;;;3.28;2.97;;;7.90;99.90;;;;;;4978267;28;20042;-35
2023/01/14 11:21:39;;;;;;;1.77;1.67;;;7.80;99.90;;;;;;4971771;28;20041;-35
2023/01/14 11:24:37;;;;;;;3.08;2.47;;;7.80;99.90;;;;;;4982517;28;20054;-35
2023/01/14 11:27:14;;;;;;;1.63;1.50;;;7.90;99.90;;;;;;4984324;28;20043;-35
2023/01/14 11:29:48;;;;;;;2.60;2.00;;;8.00;99.90;;;;;;4984020;28;20043;-35
2023/01/14 11:32:21;;;;;;;2.05;1.90;;;8.00;99.90;;;;;;4970896;28;20042;-35
2023/01/14 11:34:52;;;;;;;2.58;2.10;;;7.90;99.90;;;;;;4983246;28;20062;-35
2023/01/14 11:37:29;;;;;;;3.38;3.08;;;7.90;99.90;;;;;;4977396;28;20474;-35
2023/01/14 11:39:59;;;;;;;2.47;2.28;;;7.90;99.90;;;;;;4951735;28;20046;-36
2023/01/14 11:42:26;;;;;;;4.45;1.70;;;8.00;99.90;;;;;;4971606;28;20046;-35
2023/01/14 11:45:01;;;;;;;1.70;1.40;;;8.00;99.90;;;;;;4983812;28;20542;-35
2023/01/14 11:47:30;;;;;;;5.28;2.53;;;8.00;99.90;;;;;;4970885;28;20042;-35
2023/01/14 11:50:27;;;;;;;4.88;1.60;;;8.00;99.90;;;;;;4970615;28;20051;-34
2023/01/14 11:53:03;;;;;;;6.63;2.70;;;8.00;99.90;;;;;;4978579;28;20510;-35
2023/01/14 11:55:35;;;;;;;3.47;2.95;;;8.00;99.90;;;;;;4979867;28;20053;-35
2023/01/14 11:58:25;;;;;;;;;;;8.00;99.90;;;;;;4973990;28;20053;-35
2023/01/14 12:00:55;;;;;;;1.27;1.17;;;8.00;99.90;;;;;;4973341;28;19926;-35
2023/01/14 12:03:30;;;;;;;1.48;1.27;;;8.00;99.90;;;;;;4983892;28;20061;-35
2023/01/14 12:05:58;;;;;;;2.35;1.77;;;8.10;99.90;;;;;;4976801;28;20046;-34
2023/01/14 12:08:30;;;;;;;2.67;2.47;;;8.10;99.90;;;;;;4976578;28;20046;-35
2023/01/14 12:11:01;;;;;;;4.63;1.58;;;8.10;99.90;;;;;;4987453;28;20502;-34
2023/01/14 12:16:56;;;;;;;1.70;1.55;;;8.10;99.90;;;;;;4983968;28;20532;-35
2023/01/14 12:19:27;;;;;;;;;;;8.10;99.90;;;;;;4987039;28;20077;-34
2023/01/14 12:22:03;;;;;;;1.52;1.42;;;8.20;99.90;;;;;;4984276;28;19926;-35
2023/01/14 12:24:56;;;;;;;1.52;1.42;;;8.20;99.90;;;;;;4978660;28;20050;-35
2023/01/14 12:27:45;;;;;;;2.97;1.20;;;8.20;99.90;;;;;;4943883;28;20549;-34
2023/01/14 12:30:16;;;;;;;1.13;1.02;;;8.20;99.90;;;;;;4961255;28;20586;-35
2023/01/14 12:32:50;;;;;;;2.13;2.03;;;8.20;99.90;;;;;;4983073;28;20046;-35
2023/01/14 12:35:20;;;;;;;5.25;1.45;;;8.20;99.90;;;;;;4980964;28;20049;-35
2023/01/14 12:37:53;;;;;;;1.02;1.02;;;8.20;99.90;;;;;;4973655;28;20410;-34
2023/01/14 12:46:19;;;;;;;2.97;2.55;;;8.10;99.90;;;;;;4965461;28;20039;-35
2023/01/14 12:48:47;;;;;;;2.17;2.08;;;8.20;99.90;;;;;;4967026;28;20499;-35
2023/01/14 12:51:21;;;;;;;2.78;1.40;;;8.20;99.90;;;;;;4986725;28;20442;-35
2023/01/14 12:53:51;;;;;;;1.42;1.33;;;8.10;99.90;;;;;;4978328;28;20499;-35
2023/01/14 12:56:31;;;;;;;2.97;2.58;;;8.20;99.90;;;;;;4978619;28;20268;-35
2023/01/14 12:59:18;;;;;;;1.67;1.50;;;8.10;99.90;;;;;;4983397;28;20415;-35
2023/01/14 13:01:54;;;;;;;3.38;2.67;;;8.20;99.90;;;;;;4982453;28;20058;-35
2023/01/14 13:04:33;;;;;;;2.22;1.80;;;8.10;99.90;;;;;;4973321;28;20059;-35
2023/01/14 13:07:04;;;;;;;2.47;2.28;;;8.10;99.90;;;;;;4976929;28;20058;-35
2023/01/14 13:09:54;;;;;;;1.55;1.48;;;8.10;99.90;;;;;;4977147;28;20051;-34
2023/01/14 13:12:33;;;;;;;4.78;2.55;;;8.10;99.90;;;;;;4987387;28;20039;-34
2023/01/14 13:15:26;;;;;;;1.20;1.20;;;8.20;99.90;;;;;;4988093;28;20053;-34
2023/01/14 13:18:08;;;;;;;1.20;1.15;;;8.20;99.90;;;;;;4977964;28;20043;-34
2023/01/14 13:20:50;;;;;;;1.33;1.23;;;8.10;99.90;;;;;;4971860;28;20050;-35
2023/01/14 13:23:37;;;;;;;6.13;4.15;;;8.10;99.90;;;;;;4978152;28;20058;-35
2023/01/14 13:26:28;;;;;;;1.17;1.10;;;8.10;99.90;;;;;;4978534;28;20077;-34
2023/01/14 13:29:05;;;;;;;1.30;1.17;;;8.10;99.90;;;;;;4950868;28;20502;-35
2023/01/14 13:31:37;;;;;;;0.98;0.98;;;8.20;99.90;;;;;;4979500;28;20502;-34
2023/01/14 13:34:23;;;;;;;1.08;0.80;;;8.10;99.90;;;;;;4980608;28;20054;-35
2023/01/14 13:37:15;;;;;;;2.42;1.30;;;8.10;99.90;;;;;;4986656;28;20050;-34
2023/01/14 13:39:53;;;;;;;2.20;2.10;;;8.10;99.90;;;;;;4986047;28;20391;-35
2023/01/14 13:42:29;;;;;;;0.93;0.93;;;8.10;99.90;;;;;;4974991;28;20053;-35
2023/01/14 13:44:59;;;;;;;1.25;1.15;;;8.20;99.90;;;;;;4986885;28;20513;-35
2023/01/14 13:47:33;;;;;;;0.90;0.90;;;8.30;99.90;;;;;;4973480;28;20058;-35
2023/01/14 13:50:17;;;;;;;1.20;1.13;;;8.30;99.90;;;;;;4986438;28;20206;-34
2023/01/14 13:52:49;;;;;;;1.38;1.27;;;8.30;99.90;;;;;;4987024;28;20042;-35
2023/01/14 13:55:27;;;;;;;1.13;1.00;;;8.30;99.90;;;;;;4978018;28;20526;-35
2023/01/14 13:57:59;;;;;;;1.33;1.23;;;8.30;99.90;;;;;;4971041;28;20060;-35
2023/01/14 14:00:29;;;;;;;0.88;0.88;;;8.30;99.90;;;;;;4983739;28;20174;-35
2023/01/14 14:03:35;;;;;;;1.48;1.13;;;8.20;99.90;;;;;;4980402;28;20082;-35
2023/01/14 14:06:32;;;;;;;2.85;2.65;;;8.10;99.90;;;;;;4972311;28;20046;-35